sensor_id;sensor_type;location;lat;lon;timestamp;P1;durP1;ratioP1;P2;durP2;ratioP2
56999;SDS011;42891;50.006;21.964;2023-03-01T00:01:30;238.50;;;111.85;;
56999;SDS011;42891;50.006;21.964;2023-03-01T00:05:31;259.48;;;116.55;;
56999;SDS011;42891;50.006;21.964;2023-03-01T00:09:32;246.55;;;113.25;;
56999;SDS011;42891;50.006;21.964;2023-03-01T00:13:32;266.70;;;124.00;;
56999;SDS011;42891;50.006;21.964;2023-03-01T00:17:33;284.10;;;128.90;;
56999;SDS011;42891;50.006;21.964;2023-03-01T00:21:33;281.92;;;129.80;;
56999;SDS011;42891;50.006;21.964;2023-03-01T00:25:40;284.42;;;129.10;;
56999;SDS011;42891;50.006;21.964;2023-03-01T00:29:41;266.65;;;124.47;;
56999;SDS011;42891;50.006;21.964;2023-03-01T00:33:42;298.95;;;136.02;;
56999;SDS011;42891;50.006;21.964;2023-03-01T00:37:42;263.30;;;121.00;;
56999;SDS011;42891;50.006;21.964;2023-03-01T00:41:43;230.82;;;106.55;;
56999;SDS011;42891;50.006;21.964;2023-03-01T00:45:44;222.80;;;102.18;;
56999;SDS011;42891;50.006;21.964;2023-03-01T00:49:44;184.15;;;87.72;;
56999;SDS011;42891;50.006;21.964;2023-03-01T00:53:45;172.17;;;81.03;;
56999;SDS011;42891;50.006;21.964;2023-03-01T00:57:46;157.82;;;73.57;;
56999;SDS011;42891;50.006;21.964;2023-03-01T01:01:47;154.95;;;74.90;;
56999;SDS011;42891;50.006;21.964;2023-03-01T01:05:47;166.00;;;78.53;;
56999;SDS011;42891;50.006;21.964;2023-03-01T01:09:47;178.60;;;83.13;;
56999;SDS011;42891;50.006;21.964;2023-03-01T01:13:48;170.00;;;77.68;;
56999;SDS011;42891;50.006;21.964;2023-03-01T01:17:49;172.40;;;79.68;;
56999;SDS011;42891;50.006;21.964;2023-03-01T01:21:49;193.07;;;91.65;;
56999;SDS011;42891;50.006;21.964;2023-03-01T01:25:49;180.77;;;89.30;;
56999;SDS011;42891;50.006;21.964;2023-03-01T01:29:50;172.63;;;82.57;;
56999;SDS011;42891;50.006;21.964;2023-03-01T01:33:53;168.48;;;80.63;;
56999;SDS011;42891;50.006;21.964;2023-03-01T01:37:54;177.60;;;85.03;;
56999;SDS011;42891;50.006;21.964;2023-03-01T01:41:54;174.87;;;86.20;;
56999;SDS011;42891;50.006;21.964;2023-03-01T01:46:01;198.65;;;98.30;;
56999;SDS011;42891;50.006;21.964;2023-03-01T01:50:04;202.40;;;94.93;;
56999;SDS011;42891;50.006;21.964;2023-03-01T01:54:12;261.05;;;116.90;;
56999;SDS011;42891;50.006;21.964;2023-03-01T01:58:17;261.13;;;113.35;;
56999;SDS011;42891;50.006;21.964;2023-03-01T02:02:20;284.73;;;124.78;;
56999;SDS011;42891;50.006;21.964;2023-03-01T02:06:39;335.40;;;141.50;;
56999;SDS011;42891;50.006;21.964;2023-03-01T02:10:50;275.73;;;123.28;;
56999;SDS011;42891;50.006;21.964;2023-03-01T02:14:52;267.65;;;120.80;;
56999;SDS011;42891;50.006;21.964;2023-03-01T02:18:52;357.48;;;141.80;;
56999;SDS011;42891;50.006;21.964;2023-03-01T02:22:53;368.05;;;144.20;;
56999;SDS011;42891;50.006;21.964;2023-03-01T02:26:55;287.00;;;115.72;;
56999;SDS011;42891;50.006;21.964;2023-03-01T02:30:56;290.88;;;116.72;;
56999;SDS011;42891;50.006;21.964;2023-03-01T02:35:16;223.05;;;91.47;;
56999;SDS011;42891;50.006;21.964;2023-03-01T02:39:20;240.60;;;90.00;;
56999;SDS011;42891;50.006;21.964;2023-03-01T02:43:27;194.57;;;78.82;;
56999;SDS011;42891;50.006;21.964;2023-03-01T02:47:31;180.95;;;77.88;;
56999;SDS011;42891;50.006;21.964;2023-03-01T02:55:53;150.20;;;69.95;;
56999;SDS011;42891;50.006;21.964;2023-03-01T02:59:54;145.52;;;67.57;;
56999;SDS011;42891;50.006;21.964;2023-03-01T03:03:57;148.27;;;66.85;;
56999;SDS011;42891;50.006;21.964;2023-03-01T03:08:00;140.27;;;65.72;;
56999;SDS011;42891;50.006;21.964;2023-03-01T03:12:02;144.60;;;66.32;;
56999;SDS011;42891;50.006;21.964;2023-03-01T03:16:03;143.15;;;64.70;;
56999;SDS011;42891;50.006;21.964;2023-03-01T03:20:04;127.63;;;59.95;;
56999;SDS011;42891;50.006;21.964;2023-03-01T03:24:06;119.57;;;58.22;;
56999;SDS011;42891;50.006;21.964;2023-03-01T03:28:06;131.88;;;63.17;;
56999;SDS011;42891;50.006;21.964;2023-03-01T03:32:10;119.13;;;57.00;;
56999;SDS011;42891;50.006;21.964;2023-03-01T03:36:14;136.80;;;63.58;;
56999;SDS011;42891;50.006;21.964;2023-03-01T03:40:17;120.95;;;56.92;;
56999;SDS011;42891;50.006;21.964;2023-03-01T03:44:17;114.47;;;53.67;;
56999;SDS011;42891;50.006;21.964;2023-03-01T03:48:18;112.60;;;54.05;;
56999;SDS011;42891;50.006;21.964;2023-03-01T03:52:18;112.00;;;52.33;;
56999;SDS011;42891;50.006;21.964;2023-03-01T03:56:19;119.40;;;57.08;;
56999;SDS011;42891;50.006;21.964;2023-03-01T04:00:20;118.80;;;56.20;;
56999;SDS011;42891;50.006;21.964;2023-03-01T04:04:23;115.53;;;53.13;;
56999;SDS011;42891;50.006;21.964;2023-03-01T04:08:23;110.85;;;52.75;;
56999;SDS011;42891;50.006;21.964;2023-03-01T04:12:24;105.15;;;49.65;;
56999;SDS011;42891;50.006;21.964;2023-03-01T04:16:24;103.65;;;49.47;;
56999;SDS011;42891;50.006;21.964;2023-03-01T04:20:27;98.13;;;46.22;;
56999;SDS011;42891;50.006;21.964;2023-03-01T04:24:29;104.72;;;48.40;;
56999;SDS011;42891;50.006;21.964;2023-03-01T04:28:30;96.70;;;47.58;;
56999;SDS011;42891;50.006;21.964;2023-03-01T04:32:32;93.93;;;46.60;;
56999;SDS011;42891;50.006;21.964;2023-03-01T04:36:33;128.38;;;57.60;;
56999;SDS011;42891;50.006;21.964;2023-03-01T04:40:35;111.57;;;49.92;;
56999;SDS011;42891;50.006;21.964;2023-03-01T04:44:35;98.63;;;47.03;;
56999;SDS011;42891;50.006;21.964;2023-03-01T04:48:36;101.97;;;46.03;;
56999;SDS011;42891;50.006;21.964;2023-03-01T04:52:37;100.07;;;46.72;;
56999;SDS011;42891;50.006;21.964;2023-03-01T04:56:38;94.25;;;45.15;;
56999;SDS011;42891;50.006;21.964;2023-03-01T05:00:38;88.15;;;42.35;;
56999;SDS011;42891;50.006;21.964;2023-03-01T05:04:38;89.50;;;43.00;;
56999;SDS011;42891;50.006;21.964;2023-03-01T05:08:39;87.43;;;42.33;;
56999;SDS011;42891;50.006;21.964;2023-03-01T05:12:40;91.75;;;43.15;;
56999;SDS011;42891;50.006;21.964;2023-03-01T05:16:40;106.60;;;47.30;;
56999;SDS011;42891;50.006;21.964;2023-03-01T05:20:41;97.35;;;44.90;;
56999;SDS011;42891;50.006;21.964;2023-03-01T05:24:41;95.45;;;45.95;;
56999;SDS011;42891;50.006;21.964;2023-03-01T05:28:42;90.10;;;43.60;;
56999;SDS011;42891;50.006;21.964;2023-03-01T05:32:43;91.70;;;44.53;;
56999;SDS011;42891;50.006;21.964;2023-03-01T05:36:45;91.63;;;44.72;;
56999;SDS011;42891;50.006;21.964;2023-03-01T05:40:46;92.90;;;45.45;;
56999;SDS011;42891;50.006;21.964;2023-03-01T05:44:47;90.22;;;44.00;;
56999;SDS011;42891;50.006;21.964;2023-03-01T05:48:48;97.85;;;45.78;;
56999;SDS011;42891;50.006;21.964;2023-03-01T05:52:49;104.35;;;48.75;;
56999;SDS011;42891;50.006;21.964;2023-03-01T05:56:51;118.63;;;52.55;;
56999;SDS011;42891;50.006;21.964;2023-03-01T06:00:52;98.90;;;47.40;;
56999;SDS011;42891;50.006;21.964;2023-03-01T06:04:52;105.53;;;50.25;;
56999;SDS011;42891;50.006;21.964;2023-03-01T06:08:54;101.88;;;48.53;;
56999;SDS011;42891;50.006;21.964;2023-03-01T06:12:54;109.60;;;50.15;;
56999;SDS011;42891;50.006;21.964;2023-03-01T06:16:55;117.85;;;52.13;;
56999;SDS011;42891;50.006;21.964;2023-03-01T06:20:56;108.20;;;52.23;;
56999;SDS011;42891;50.006;21.964;2023-03-01T06:24:56;108.05;;;51.10;;
56999;SDS011;42891;50.006;21.964;2023-03-01T06:28:56;101.38;;;48.97;;
56999;SDS011;42891;50.006;21.964;2023-03-01T06:32:57;97.32;;;46.47;;
56999;SDS011;42891;50.006;21.964;2023-03-01T06:37:00;107.78;;;46.78;;
56999;SDS011;42891;50.006;21.964;2023-03-01T06:41:02;95.63;;;43.22;;
56999;SDS011;42891;50.006;21.964;2023-03-01T06:45:03;89.15;;;43.33;;
56999;SDS011;42891;50.006;21.964;2023-03-01T06:49:05;92.07;;;45.72;;
56999;SDS011;42891;50.006;21.964;2023-03-01T06:53:09;82.43;;;42.13;;
56999;SDS011;42891;50.006;21.964;2023-03-01T06:57:09;82.63;;;41.33;;
56999;SDS011;42891;50.006;21.964;2023-03-01T07:01:09;80.75;;;41.65;;
56999;SDS011;42891;50.006;21.964;2023-03-01T07:05:10;91.55;;;43.17;;
56999;SDS011;42891;50.006;21.964;2023-03-01T07:09:10;81.57;;;43.42;;
56999;SDS011;42891;50.006;21.964;2023-03-01T07:13:10;85.88;;;43.97;;
56999;SDS011;42891;50.006;21.964;2023-03-01T07:17:10;88.75;;;46.83;;
56999;SDS011;42891;50.006;21.964;2023-03-01T07:21:12;93.93;;;48.33;;
56999;SDS011;42891;50.006;21.964;2023-03-01T07:25:13;91.00;;;46.47;;
56999;SDS011;42891;50.006;21.964;2023-03-01T07:29:13;91.20;;;45.40;;
56999;SDS011;42891;50.006;21.964;2023-03-01T07:33:14;101.70;;;52.03;;
56999;SDS011;42891;50.006;21.964;2023-03-01T07:37:14;99.05;;;47.83;;
56999;SDS011;42891;50.006;21.964;2023-03-01T07:41:14;92.75;;;43.67;;
56999;SDS011;42891;50.006;21.964;2023-03-01T07:45:15;87.80;;;42.40;;
56999;SDS011;42891;50.006;21.964;2023-03-01T07:49:15;87.22;;;43.00;;
56999;SDS011;42891;50.006;21.964;2023-03-01T07:53:15;81.57;;;41.45;;
56999;SDS011;42891;50.006;21.964;2023-03-01T07:57:16;79.18;;;40.78;;
56999;SDS011;42891;50.006;21.964;2023-03-01T08:01:17;90.93;;;44.92;;
56999;SDS011;42891;50.006;21.964;2023-03-01T08:05:19;84.45;;;43.65;;
56999;SDS011;42891;50.006;21.964;2023-03-01T08:09:22;67.43;;;37.75;;
56999;SDS011;42891;50.006;21.964;2023-03-01T08:13:22;70.85;;;37.25;;
56999;SDS011;42891;50.006;21.964;2023-03-01T08:17:22;78.05;;;40.22;;
56999;SDS011;42891;50.006;21.964;2023-03-01T08:21:23;73.03;;;37.38;;
56999;SDS011;42891;50.006;21.964;2023-03-01T08:25:23;71.75;;;36.53;;
56999;SDS011;42891;50.006;21.964;2023-03-01T08:29:23;73.55;;;37.15;;
56999;SDS011;42891;50.006;21.964;2023-03-01T08:33:26;68.05;;;35.80;;
56999;SDS011;42891;50.006;21.964;2023-03-01T08:37:27;65.55;;;33.97;;
56999;SDS011;42891;50.006;21.964;2023-03-01T08:41:30;64.93;;;32.50;;
56999;SDS011;42891;50.006;21.964;2023-03-01T08:45:31;60.03;;;33.38;;
56999;SDS011;42891;50.006;21.964;2023-03-01T08:49:31;65.82;;;34.15;;
56999;SDS011;42891;50.006;21.964;2023-03-01T08:53:32;51.17;;;28.27;;
56999;SDS011;42891;50.006;21.964;2023-03-01T08:57:32;42.50;;;23.30;;
56999;SDS011;42891;50.006;21.964;2023-03-01T09:01:33;46.20;;;24.75;;
56999;SDS011;42891;50.006;21.964;2023-03-01T09:05:33;39.80;;;20.80;;
56999;SDS011;42891;50.006;21.964;2023-03-01T09:09:34;35.50;;;19.67;;
56999;SDS011;42891;50.006;21.964;2023-03-01T09:13:35;36.80;;;18.50;;
56999;SDS011;42891;50.006;21.964;2023-03-01T09:17:36;29.52;;;17.63;;
56999;SDS011;42891;50.006;21.964;2023-03-01T09:21:36;25.77;;;15.27;;
56999;SDS011;42891;50.006;21.964;2023-03-01T09:25:37;30.42;;;17.20;;
56999;SDS011;42891;50.006;21.964;2023-03-01T09:29:37;26.70;;;15.30;;
56999;SDS011;42891;50.006;21.964;2023-03-01T09:33:38;25.55;;;15.88;;
56999;SDS011;42891;50.006;21.964;2023-03-01T09:37:40;30.63;;;17.60;;
56999;SDS011;42891;50.006;21.964;2023-03-01T09:41:49;26.98;;;16.27;;
56999;SDS011;42891;50.006;21.964;2023-03-01T09:45:50;33.03;;;18.27;;
56999;SDS011;42891;50.006;21.964;2023-03-01T09:49:58;33.42;;;19.52;;
56999;SDS011;42891;50.006;21.964;2023-03-01T09:54:06;30.90;;;18.55;;
56999;SDS011;42891;50.006;21.964;2023-03-01T10:02:24;30.67;;;17.35;;
56999;SDS011;42891;50.006;21.964;2023-03-01T10:10:27;31.58;;;17.42;;
56999;SDS011;42891;50.006;21.964;2023-03-01T10:14:42;31.92;;;18.50;;
56999;SDS011;42891;50.006;21.964;2023-03-01T10:18:55;35.33;;;19.25;;
56999;SDS011;42891;50.006;21.964;2023-03-01T10:23:00;33.63;;;19.40;;
56999;SDS011;42891;50.006;21.964;2023-03-01T10:27:02;32.17;;;18.77;;
56999;SDS011;42891;50.006;21.964;2023-03-01T10:31:12;37.53;;;20.23;;
56999;SDS011;42891;50.006;21.964;2023-03-01T10:35:15;33.42;;;19.67;;
56999;SDS011;42891;50.006;21.964;2023-03-01T10:39:21;37.65;;;21.25;;
56999;SDS011;42891;50.006;21.964;2023-03-01T10:43:23;38.20;;;21.77;;
56999;SDS011;42891;50.006;21.964;2023-03-01T10:47:31;41.40;;;22.83;;
56999;SDS011;42891;50.006;21.964;2023-03-01T10:51:32;40.22;;;23.60;;
56999;SDS011;42891;50.006;21.964;2023-03-01T10:59:38;40.50;;;21.38;;
56999;SDS011;42891;50.006;21.964;2023-03-01T11:03:38;41.17;;;22.33;;
56999;SDS011;42891;50.006;21.964;2023-03-01T11:07:49;38.03;;;22.92;;
56999;SDS011;42891;50.006;21.964;2023-03-01T11:12:13;41.90;;;24.67;;
56999;SDS011;42891;50.006;21.964;2023-03-01T11:16:15;46.83;;;25.70;;
56999;SDS011;42891;50.006;21.964;2023-03-01T11:24:43;45.60;;;24.17;;
56999;SDS011;42891;50.006;21.964;2023-03-01T11:28:49;36.85;;;20.45;;
56999;SDS011;42891;50.006;21.964;2023-03-01T11:37:21;39.03;;;21.80;;
56999;SDS011;42891;50.006;21.964;2023-03-01T11:41:28;34.20;;;19.27;;
56999;SDS011;42891;50.006;21.964;2023-03-01T11:59:01;42.53;;;24.85;;
56999;SDS011;42891;50.006;21.964;2023-03-01T12:25:38;27.80;;;17.73;;
56999;SDS011;42891;50.006;21.964;2023-03-01T12:29:42;28.55;;;18.05;;
56999;SDS011;42891;50.006;21.964;2023-03-01T12:33:54;26.53;;;17.93;;
56999;SDS011;42891;50.006;21.964;2023-03-01T12:42:36;25.83;;;18.02;;
56999;SDS011;42891;50.006;21.964;2023-03-01T12:51:24;26.40;;;17.83;;
56999;SDS011;42891;50.006;21.964;2023-03-01T12:59:39;26.80;;;18.92;;
56999;SDS011;42891;50.006;21.964;2023-03-01T13:04:02;24.15;;;17.17;;
56999;SDS011;42891;50.006;21.964;2023-03-01T13:16:47;27.48;;;17.85;;
56999;SDS011;42891;50.006;21.964;2023-03-01T13:20:51;23.63;;;16.45;;
56999;SDS011;42891;50.006;21.964;2023-03-01T13:25:11;24.92;;;15.80;;
56999;SDS011;42891;50.006;21.964;2023-03-01T13:29:26;23.00;;;15.10;;
56999;SDS011;42891;50.006;21.964;2023-03-01T13:37:36;22.45;;;14.50;;
56999;SDS011;42891;50.006;21.964;2023-03-01T13:45:43;20.30;;;13.65;;
56999;SDS011;42891;50.006;21.964;2023-03-01T13:49:47;20.27;;;13.25;;
56999;SDS011;42891;50.006;21.964;2023-03-01T13:53:47;18.10;;;11.57;;
56999;SDS011;42891;50.006;21.964;2023-03-01T13:57:49;14.10;;;9.88;;
56999;SDS011;42891;50.006;21.964;2023-03-01T14:01:54;14.27;;;9.93;;
56999;SDS011;42891;50.006;21.964;2023-03-01T14:06:00;17.17;;;10.40;;
56999;SDS011;42891;50.006;21.964;2023-03-01T14:10:11;17.90;;;11.73;;
56999;SDS011;42891;50.006;21.964;2023-03-01T14:18:34;17.60;;;11.18;;
56999;SDS011;42891;50.006;21.964;2023-03-01T14:22:52;16.42;;;11.23;;
56999;SDS011;42891;50.006;21.964;2023-03-01T14:26:55;19.30;;;12.85;;
56999;SDS011;42891;50.006;21.964;2023-03-01T14:30:57;27.13;;;17.67;;
56999;SDS011;42891;50.006;21.964;2023-03-01T14:34:59;20.63;;;14.07;;
56999;SDS011;42891;50.006;21.964;2023-03-01T14:39:00;24.55;;;16.65;;
56999;SDS011;42891;50.006;21.964;2023-03-01T14:43:09;55.57;;;32.43;;
56999;SDS011;42891;50.006;21.964;2023-03-01T14:47:12;22.50;;;14.45;;
56999;SDS011;42891;50.006;21.964;2023-03-01T14:51:16;24.52;;;14.13;;
56999;SDS011;42891;50.006;21.964;2023-03-01T14:55:18;21.42;;;13.63;;
56999;SDS011;42891;50.006;21.964;2023-03-01T14:59:21;18.40;;;11.70;;
56999;SDS011;42891;50.006;21.964;2023-03-01T15:03:33;19.98;;;12.65;;
56999;SDS011;42891;50.006;21.964;2023-03-01T15:07:38;18.38;;;12.05;;
56999;SDS011;42891;50.006;21.964;2023-03-01T15:11:41;18.05;;;11.50;;
56999;SDS011;42891;50.006;21.964;2023-03-01T15:15:44;21.17;;;13.25;;
56999;SDS011;42891;50.006;21.964;2023-03-01T15:19:46;27.60;;;16.80;;
56999;SDS011;42891;50.006;21.964;2023-03-01T15:23:48;23.73;;;13.10;;
56999;SDS011;42891;50.006;21.964;2023-03-01T15:27:53;23.35;;;13.10;;
56999;SDS011;42891;50.006;21.964;2023-03-01T15:32:01;27.98;;;16.45;;
56999;SDS011;42891;50.006;21.964;2023-03-01T15:40:48;23.42;;;14.00;;
56999;SDS011;42891;50.006;21.964;2023-03-01T15:44:50;25.25;;;15.07;;
56999;SDS011;42891;50.006;21.964;2023-03-01T15:53:41;26.70;;;14.77;;
56999;SDS011;42891;50.006;21.964;2023-03-01T15:57:48;39.55;;;16.13;;
56999;SDS011;42891;50.006;21.964;2023-03-01T16:01:49;27.10;;;15.15;;
56999;SDS011;42891;50.006;21.964;2023-03-01T16:05:49;30.10;;;16.92;;
56999;SDS011;42891;50.006;21.964;2023-03-01T16:09:51;36.00;;;20.35;;
56999;SDS011;42891;50.006;21.964;2023-03-01T16:13:51;37.85;;;19.58;;
56999;SDS011;42891;50.006;21.964;2023-03-01T16:17:51;31.50;;;17.70;;
56999;SDS011;42891;50.006;21.964;2023-03-01T16:21:52;35.72;;;19.77;;
56999;SDS011;42891;50.006;21.964;2023-03-01T16:25:52;41.70;;;20.07;;
56999;SDS011;42891;50.006;21.964;2023-03-01T16:29:52;34.55;;;19.33;;
56999;SDS011;42891;50.006;21.964;2023-03-01T16:33:53;33.33;;;19.33;;
56999;SDS011;42891;50.006;21.964;2023-03-01T16:37:59;34.27;;;17.87;;
56999;SDS011;42891;50.006;21.964;2023-03-01T16:42:00;33.85;;;19.42;;
56999;SDS011;42891;50.006;21.964;2023-03-01T16:46:01;37.50;;;20.35;;
56999;SDS011;42891;50.006;21.964;2023-03-01T16:50:01;41.90;;;21.23;;
56999;SDS011;42891;50.006;21.964;2023-03-01T16:54:02;48.63;;;23.55;;
56999;SDS011;42891;50.006;21.964;2023-03-01T16:58:04;92.72;;;50.38;;
56999;SDS011;42891;50.006;21.964;2023-03-01T17:02:05;223.45;;;109.88;;
56999;SDS011;42891;50.006;21.964;2023-03-01T17:06:09;161.85;;;79.82;;
56999;SDS011;42891;50.006;21.964;2023-03-01T17:10:11;148.23;;;72.47;;
56999;SDS011;42891;50.006;21.964;2023-03-01T17:14:12;134.10;;;63.72;;
56999;SDS011;42891;50.006;21.964;2023-03-01T17:18:12;173.43;;;78.22;;
56999;SDS011;42891;50.006;21.964;2023-03-01T17:22:13;217.02;;;97.90;;
56999;SDS011;42891;50.006;21.964;2023-03-01T17:26:15;226.82;;;102.93;;
56999;SDS011;42891;50.006;21.964;2023-03-01T17:30:16;286.33;;;130.95;;
56999;SDS011;42891;50.006;21.964;2023-03-01T17:34:17;294.13;;;133.10;;
56999;SDS011;42891;50.006;21.964;2023-03-01T17:38:17;239.57;;;110.90;;
56999;SDS011;42891;50.006;21.964;2023-03-01T17:42:18;217.55;;;103.22;;
56999;SDS011;42891;50.006;21.964;2023-03-01T17:46:18;333.90;;;144.93;;
56999;SDS011;42891;50.006;21.964;2023-03-01T17:50:19;803.13;;;377.80;;
56999;SDS011;42891;50.006;21.964;2023-03-01T17:54:19;491.88;;;238.48;;
56999;SDS011;42891;50.006;21.964;2023-03-01T17:58:19;461.23;;;208.52;;
56999;SDS011;42891;50.006;21.964;2023-03-01T18:02:21;588.28;;;257.38;;
56999;SDS011;42891;50.006;21.964;2023-03-01T18:06:23;976.33;;;438.77;;
56999;SDS011;42891;50.006;21.964;2023-03-01T18:10:24;621.58;;;256.27;;
56999;SDS011;42891;50.006;21.964;2023-03-01T18:14:25;558.13;;;242.07;;
56999;SDS011;42891;50.006;21.964;2023-03-01T18:18:28;890.47;;;448.83;;
56999;SDS011;42891;50.006;21.964;2023-03-01T18:22:29;737.97;;;401.85;;
56999;SDS011;42891;50.006;21.964;2023-03-01T18:26:30;657.60;;;336.42;;
56999;SDS011;42891;50.006;21.964;2023-03-01T18:30:30;623.17;;;317.40;;
56999;SDS011;42891;50.006;21.964;2023-03-01T18:34:32;516.85;;;256.08;;
56999;SDS011;42891;50.006;21.964;2023-03-01T18:38:33;398.92;;;173.90;;
56999;SDS011;42891;50.006;21.964;2023-03-01T18:42:34;365.60;;;157.87;;
56999;SDS011;42891;50.006;21.964;2023-03-01T18:46:35;376.90;;;167.80;;
56999;SDS011;42891;50.006;21.964;2023-03-01T18:50:37;354.67;;;161.82;;
56999;SDS011;42891;50.006;21.964;2023-03-01T18:54:38;360.65;;;164.93;;
56999;SDS011;42891;50.006;21.964;2023-03-01T18:58:38;356.53;;;158.37;;
56999;SDS011;42891;50.006;21.964;2023-03-01T19:02:41;302.25;;;136.13;;
56999;SDS011;42891;50.006;21.964;2023-03-01T19:06:42;306.53;;;136.40;;
56999;SDS011;42891;50.006;21.964;2023-03-01T19:10:42;313.27;;;142.07;;
56999;SDS011;42891;50.006;21.964;2023-03-01T19:14:42;319.63;;;142.87;;
56999;SDS011;42891;50.006;21.964;2023-03-01T19:18:43;329.27;;;150.97;;
56999;SDS011;42891;50.006;21.964;2023-03-01T19:22:49;403.35;;;190.48;;
56999;SDS011;42891;50.006;21.964;2023-03-01T19:26:49;413.93;;;197.73;;
56999;SDS011;42891;50.006;21.964;2023-03-01T19:30:49;283.38;;;132.07;;
56999;SDS011;42891;50.006;21.964;2023-03-01T19:34:49;208.90;;;103.53;;
56999;SDS011;42891;50.006;21.964;2023-03-01T19:38:50;198.88;;;95.28;;
56999;SDS011;42891;50.006;21.964;2023-03-01T19:42:50;188.90;;;93.10;;
56999;SDS011;42891;50.006;21.964;2023-03-01T19:46:52;179.45;;;89.50;;
56999;SDS011;42891;50.006;21.964;2023-03-01T19:50:54;183.35;;;88.85;;
56999;SDS011;42891;50.006;21.964;2023-03-01T19:54:54;184.57;;;90.43;;
56999;SDS011;42891;50.006;21.964;2023-03-01T19:58:55;187.23;;;90.40;;
56999;SDS011;42891;50.006;21.964;2023-03-01T20:02:59;176.23;;;92.47;;
56999;SDS011;42891;50.006;21.964;2023-03-01T20:06:59;194.88;;;98.35;;
56999;SDS011;42891;50.006;21.964;2023-03-01T20:11:01;195.90;;;96.00;;
56999;SDS011;42891;50.006;21.964;2023-03-01T20:15:03;294.48;;;125.03;;
56999;SDS011;42891;50.006;21.964;2023-03-01T20:19:03;430.30;;;174.27;;
56999;SDS011;42891;50.006;21.964;2023-03-01T20:23:04;421.25;;;161.73;;
56999;SDS011;42891;50.006;21.964;2023-03-01T20:27:04;346.10;;;139.63;;
56999;SDS011;42891;50.006;21.964;2023-03-01T20:31:08;311.83;;;131.02;;
56999;SDS011;42891;50.006;21.964;2023-03-01T20:35:11;292.85;;;124.80;;
56999;SDS011;42891;50.006;21.964;2023-03-01T20:39:11;562.67;;;264.25;;
56999;SDS011;42891;50.006;21.964;2023-03-01T20:43:11;424.55;;;188.43;;
56999;SDS011;42891;50.006;21.964;2023-03-01T20:47:13;405.47;;;178.93;;
56999;SDS011;42891;50.006;21.964;2023-03-01T20:51:13;452.55;;;206.00;;
56999;SDS011;42891;50.006;21.964;2023-03-01T20:55:14;393.60;;;161.15;;
56999;SDS011;42891;50.006;21.964;2023-03-01T20:59:14;368.90;;;154.43;;
56999;SDS011;42891;50.006;21.964;2023-03-01T21:03:14;336.30;;;140.93;;
56999;SDS011;42891;50.006;21.964;2023-03-01T21:07:15;324.02;;;142.32;;
56999;SDS011;42891;50.006;21.964;2023-03-01T21:11:15;331.42;;;138.73;;
56999;SDS011;42891;50.006;21.964;2023-03-01T21:15:17;301.10;;;131.27;;
56999;SDS011;42891;50.006;21.964;2023-03-01T21:19:17;284.98;;;123.00;;
56999;SDS011;42891;50.006;21.964;2023-03-01T21:23:17;278.38;;;122.95;;
56999;SDS011;42891;50.006;21.964;2023-03-01T21:27:18;269.20;;;120.05;;
56999;SDS011;42891;50.006;21.964;2023-03-01T21:31:25;225.45;;;103.13;;
56999;SDS011;42891;50.006;21.964;2023-03-01T21:35:33;206.23;;;102.37;;
56999;SDS011;42891;50.006;21.964;2023-03-01T21:39:34;217.82;;;104.82;;
56999;SDS011;42891;50.006;21.964;2023-03-01T21:43:34;218.13;;;104.00;;
56999;SDS011;42891;50.006;21.964;2023-03-01T21:47:35;237.82;;;105.25;;
56999;SDS011;42891;50.006;21.964;2023-03-01T21:51:35;279.17;;;123.43;;
56999;SDS011;42891;50.006;21.964;2023-03-01T21:55:36;314.20;;;135.02;;
56999;SDS011;42891;50.006;21.964;2023-03-01T21:59:36;321.42;;;134.68;;
56999;SDS011;42891;50.006;21.964;2023-03-01T22:03:37;406.98;;;154.25;;
56999;SDS011;42891;50.006;21.964;2023-03-01T22:07:44;416.15;;;151.80;;
56999;SDS011;42891;50.006;21.964;2023-03-01T22:11:48;359.20;;;146.00;;
56999;SDS011;42891;50.006;21.964;2023-03-01T22:15:50;367.95;;;145.05;;
56999;SDS011;42891;50.006;21.964;2023-03-01T22:19:50;381.23;;;152.10;;
56999;SDS011;42891;50.006;21.964;2023-03-01T22:23:51;372.52;;;145.45;;
56999;SDS011;42891;50.006;21.964;2023-03-01T22:27:52;333.98;;;139.80;;
56999;SDS011;42891;50.006;21.964;2023-03-01T22:31:53;304.75;;;134.68;;
56999;SDS011;42891;50.006;21.964;2023-03-01T22:35:54;306.60;;;131.45;;
56999;SDS011;42891;50.006;21.964;2023-03-01T22:39:55;345.92;;;137.38;;
56999;SDS011;42891;50.006;21.964;2023-03-01T22:43:56;435.50;;;178.77;;
56999;SDS011;42891;50.006;21.964;2023-03-01T22:47:57;477.98;;;207.90;;
56999;SDS011;42891;50.006;21.964;2023-03-01T22:51:58;399.00;;;160.93;;
56999;SDS011;42891;50.006;21.964;2023-03-01T22:56:08;387.77;;;162.55;;
56999;SDS011;42891;50.006;21.964;2023-03-01T23:00:10;272.80;;;119.82;;
56999;SDS011;42891;50.006;21.964;2023-03-01T23:04:12;299.98;;;136.88;;
56999;SDS011;42891;50.006;21.964;2023-03-01T23:08:12;275.52;;;121.05;;
56999;SDS011;42891;50.006;21.964;2023-03-01T23:12:13;254.48;;;116.57;;
56999;SDS011;42891;50.006;21.964;2023-03-01T23:16:13;271.83;;;119.82;;
56999;SDS011;42891;50.006;21.964;2023-03-01T23:20:14;335.50;;;148.00;;
56999;SDS011;42891;50.006;21.964;2023-03-01T23:24:16;301.58;;;137.43;;
56999;SDS011;42891;50.006;21.964;2023-03-01T23:28:17;330.50;;;146.88;;
56999;SDS011;42891;50.006;21.964;2023-03-01T23:32:18;250.00;;;118.15;;
56999;SDS011;42891;50.006;21.964;2023-03-01T23:36:19;235.93;;;114.47;;
56999;SDS011;42891;50.006;21.964;2023-03-01T23:40:21;254.10;;;116.90;;
56999;SDS011;42891;50.006;21.964;2023-03-01T23:44:22;219.90;;;106.63;;
56999;SDS011;42891;50.006;21.964;2023-03-01T23:48:22;212.10;;;103.55;;
56999;SDS011;42891;50.006;21.964;2023-03-01T23:52:22;215.03;;;101.97;;
56999;SDS011;42891;50.006;21.964;2023-03-01T23:56:24;214.73;;;101.28;;
